Colden Common, United Kingdom
Current Conditions -  °F | °C
As of 9:50 PM on Wednesday 28 Jan 2015 (Local Time) from EGHI Reporting Station
Rain Showers Rain Showers  
Wind Chill: 31°   Ceiling: Unl
Heat Index: 36°   Visibility: 6mi
Dew Point: 30°   Wind: 6mph
Humidity: 81%   Direction: 270°W
Pressure: 29.62"   Gusts: NA
Location:  50.99°N, 1.31°W
Report Text: EGHI 282150Z 27005KT 220V290 9999 VCSH FEW025 FEW046 02/M01 Q1003
Loading
Personal Weather Stations






























Interactive Weather Map New forecast layout! Learn more

10-Day Weather Forecast

Advertisements
Track Severe Weather on mobile